RYR2CW EPMO-LBSF
Flight info
| Callsign | RYR2CW |
|---|---|
| Flight time | 1h 31m |
| Altitude | 37000 |
| Route | XIMBA DCT OMAVA DCT ROBTU DCT BADOR DCT TIMUR N181 GOL |
| Aircraft | B738/M-SDE2E3FGHIRWXY/LB1 |
Departure
| Time | 2026-04-15 14:23 |
|---|---|
| Airport | Warsaw Modlin Airport (EPMO) |
Arrival
| Time | 2026-04-15 15:54 |
|---|---|
| Airport | Sofia Airport (LBSF) |
| Time | Latitude | Longitude | Altitude | Speed | Heading |
|---|---|---|---|---|---|
| 2026-04-15 14:07 | 52.44741 | 20.65181 | 337 ft | 0 kts | 206° |
| 2026-04-15 14:17 | 52.44742 | 20.65182 | 337 ft | 1 kts | 206° |
| 2026-04-15 14:17 | 52.44755 | 20.65192 | 333 ft | 3 kts | 192° |
| 2026-04-15 14:17 | 52.44773 | 20.65194 | 334 ft | 3 kts | 150° |
| 2026-04-15 14:18 | 52.44783 | 20.65178 | 334 ft | 2 kts | 91° |
| 2026-04-15 14:18 | 52.44782 | 20.65162 | 336 ft | 1 kts | 81° |
| 2026-04-15 14:18 | 52.44782 | 20.65160 | 336 ft | 0 kts | 81° |
| 2026-04-15 14:20 | 52.44787 | 20.65215 | 333 ft | 15 kts | 81° |
| 2026-04-15 14:20 | 52.44811 | 20.65478 | 335 ft | 27 kts | 81° |
| 2026-04-15 14:20 | 52.44837 | 20.65771 | 333 ft | 25 kts | 81° |
| 2026-04-15 14:21 | 52.44863 | 20.66042 | 337 ft | 23 kts | 81° |
| 2026-04-15 14:21 | 52.44971 | 20.66103 | 335 ft | 19 kts | 340° |
| 2026-04-15 14:21 | 52.45089 | 20.66032 | 336 ft | 12 kts | 341° |
| 2026-04-15 14:21 | 52.45169 | 20.65999 | 335 ft | 12 kts | 3° |
| 2026-04-15 14:22 | 52.45192 | 20.65933 | 336 ft | 7 kts | 263° |
| 2026-04-15 14:22 | 52.45160 | 20.65586 | 339 ft | 68 kts | 261° |
| 2026-04-15 14:22 | 52.45048 | 20.64398 | 338 ft | 139 kts | 261° |
| 2026-04-15 14:22 | 52.44902 | 20.62664 | 825 ft | 160 kts | 264° |
| 2026-04-15 14:23 | 52.44770 | 20.60798 | 1607 ft | 172 kts | 266° |
| 2026-04-15 14:23 | 52.44632 | 20.58770 | 2325 ft | 191 kts | 264° |
| 2026-04-15 14:23 | 52.44446 | 20.56525 | 2949 ft | 209 kts | 262° |
| 2026-04-15 14:23 | 52.44245 | 20.54023 | 3335 ft | 237 kts | 262° |
| 2026-04-15 14:24 | 52.43631 | 20.51326 | 3600 ft | 273 kts | 233° |
| 2026-04-15 14:24 | 52.42127 | 20.49164 | 3903 ft | 306 kts | 209° |
| 2026-04-15 14:24 | 52.40002 | 20.48282 | 4437 ft | 327 kts | 181° |
| 2026-04-15 14:24 | 52.37720 | 20.48685 | 5400 ft | 331 kts | 171° |
| 2026-04-15 14:25 | 52.35479 | 20.49481 | 6348 ft | 336 kts | 168° |
| 2026-04-15 14:25 | 52.33193 | 20.50417 | 7188 ft | 342 kts | 167° |
| 2026-04-15 14:25 | 52.30875 | 20.51404 | 8034 ft | 347 kts | 167° |
| 2026-04-15 14:25 | 52.28518 | 20.52410 | 8894 ft | 352 kts | 167° |
| 2026-04-15 14:26 | 52.26128 | 20.53422 | 9736 ft | 357 kts | 167° |
| 2026-04-15 14:26 | 52.23698 | 20.54439 | 10534 ft | 362 kts | 167° |
| 2026-04-15 14:26 | 52.21262 | 20.55450 | 11271 ft | 368 kts | 167° |
| 2026-04-15 14:26 | 52.18758 | 20.56482 | 11989 ft | 374 kts | 167° |
| 2026-04-15 14:27 | 52.16212 | 20.57525 | 12716 ft | 379 kts | 167° |
| 2026-04-15 14:27 | 52.13635 | 20.58578 | 13446 ft | 384 kts | 167° |
| 2026-04-15 14:27 | 52.11021 | 20.59642 | 14139 ft | 390 kts | 167° |
| 2026-04-15 14:27 | 52.08373 | 20.60719 | 14805 ft | 394 kts | 167° |
| 2026-04-15 14:28 | 52.05702 | 20.61803 | 15517 ft | 396 kts | 168° |
| 2026-04-15 14:28 | 52.03012 | 20.62894 | 16227 ft | 400 kts | 168° |
| 2026-04-15 14:28 | 52.00300 | 20.63992 | 16889 ft | 403 kts | 168° |
| 2026-04-15 14:28 | 51.97597 | 20.65084 | 17537 ft | 407 kts | 168° |
| 2026-04-15 14:29 | 51.94826 | 20.66203 | 18193 ft | 411 kts | 168° |
| 2026-04-15 14:29 | 51.92036 | 20.67328 | 18788 ft | 415 kts | 168° |
| 2026-04-15 14:29 | 51.89217 | 20.68463 | 19300 ft | 420 kts | 168° |
| 2026-04-15 14:29 | 51.86362 | 20.69611 | 19834 ft | 424 kts | 168° |
| 2026-04-15 14:30 | 51.83481 | 20.70769 | 20351 ft | 428 kts | 168° |
| 2026-04-15 14:30 | 51.80576 | 20.71934 | 20857 ft | 432 kts | 168° |
| 2026-04-15 14:30 | 51.77642 | 20.73109 | 21351 ft | 436 kts | 168° |
| 2026-04-15 14:30 | 51.74681 | 20.74295 | 21834 ft | 440 kts | 167° |
| 2026-04-15 14:31 | 51.72336 | 20.75232 | 22213 ft | 443 kts | 167° |
| 2026-04-15 14:31 | 51.70345 | 20.76027 | 22521 ft | 446 kts | 167° |
| 2026-04-15 14:31 | 51.67318 | 20.77234 | 22987 ft | 450 kts | 167° |
| 2026-04-15 14:31 | 51.63219 | 20.78867 | 23602 ft | 455 kts | 167° |
| 2026-04-15 14:32 | 51.60126 | 20.80096 | 23996 ft | 459 kts | 167° |
| 2026-04-15 14:32 | 51.57014 | 20.81332 | 24386 ft | 462 kts | 167° |
| 2026-04-15 14:32 | 51.53920 | 20.82559 | 24794 ft | 464 kts | 167° |
| 2026-04-15 14:32 | 51.51801 | 20.83398 | 25060 ft | 466 kts | 167° |
| 2026-04-15 14:33 | 51.47611 | 20.85055 | 25544 ft | 469 kts | 167° |
| 2026-04-15 14:33 | 51.44432 | 20.86310 | 25897 ft | 472 kts | 167° |
| 2026-04-15 14:33 | 51.41220 | 20.87575 | 26263 ft | 475 kts | 167° |
| 2026-04-15 14:33 | 51.38000 | 20.88843 | 26621 ft | 477 kts | 167° |
| 2026-04-15 14:34 | 51.34764 | 20.90114 | 26957 ft | 480 kts | 167° |
| 2026-04-15 14:34 | 51.31555 | 20.91374 | 27285 ft | 482 kts | 167° |
| 2026-04-15 14:34 | 51.28289 | 20.92654 | 27610 ft | 484 kts | 167° |
| 2026-04-15 14:34 | 51.25004 | 20.93939 | 27930 ft | 486 kts | 167° |
| 2026-04-15 14:35 | 51.21708 | 20.95227 | 28268 ft | 488 kts | 167° |
| 2026-04-15 14:35 | 51.18397 | 20.96519 | 28677 ft | 488 kts | 167° |
| 2026-04-15 14:35 | 51.15098 | 20.97805 | 29169 ft | 486 kts | 168° |
| 2026-04-15 14:35 | 51.11815 | 20.99083 | 29681 ft | 484 kts | 168° |
| 2026-04-15 14:36 | 51.08574 | 21.00342 | 30129 ft | 483 kts | 168° |
| 2026-04-15 14:36 | 51.05303 | 21.01611 | 30515 ft | 483 kts | 168° |
| 2026-04-15 14:36 | 51.02035 | 21.02876 | 30844 ft | 483 kts | 168° |
| 2026-04-15 14:36 | 50.98770 | 21.04139 | 31173 ft | 483 kts | 168° |
| 2026-04-15 14:37 | 50.96603 | 21.04976 | 31406 ft | 483 kts | 168° |
| 2026-04-15 14:37 | 50.93334 | 21.06237 | 31766 ft | 483 kts | 168° |
| 2026-04-15 14:37 | 50.90071 | 21.07494 | 32117 ft | 482 kts | 168° |
| 2026-04-15 14:37 | 50.86805 | 21.08750 | 32435 ft | 482 kts | 168° |
| 2026-04-15 14:38 | 50.83538 | 21.10005 | 32767 ft | 482 kts | 168° |
| 2026-04-15 14:38 | 50.80272 | 21.11258 | 33106 ft | 482 kts | 168° |
| 2026-04-15 14:38 | 50.77012 | 21.12507 | 33443 ft | 482 kts | 168° |
| 2026-04-15 14:38 | 50.73752 | 21.13753 | 33760 ft | 482 kts | 168° |
| 2026-04-15 14:39 | 50.70533 | 21.14983 | 34066 ft | 482 kts | 168° |
| 2026-04-15 14:39 | 50.67268 | 21.16228 | 34364 ft | 481 kts | 168° |
| 2026-04-15 14:39 | 50.64012 | 21.17468 | 34655 ft | 480 kts | 168° |
| 2026-04-15 14:39 | 50.60769 | 21.18702 | 34940 ft | 479 kts | 168° |
| 2026-04-15 14:40 | 50.57533 | 21.19931 | 35232 ft | 478 kts | 168° |
| 2026-04-15 14:40 | 50.54302 | 21.21156 | 35500 ft | 477 kts | 168° |
| 2026-04-15 14:40 | 50.51065 | 21.22382 | 35757 ft | 477 kts | 168° |
| 2026-04-15 14:40 | 50.47831 | 21.23605 | 36019 ft | 476 kts | 168° |
| 2026-04-15 14:41 | 50.44646 | 21.24808 | 36285 ft | 475 kts | 168° |
| 2026-04-15 14:41 | 50.41427 | 21.26022 | 36539 ft | 475 kts | 168° |
| 2026-04-15 14:41 | 50.38205 | 21.27235 | 36780 ft | 475 kts | 168° |
| 2026-04-15 14:41 | 50.34987 | 21.28445 | 37038 ft | 474 kts | 168° |
| 2026-04-15 14:42 | 50.31782 | 21.29649 | 37223 ft | 474 kts | 168° |
| 2026-04-15 14:42 | 50.25372 | 21.32050 | 37207 ft | 476 kts | 168° |
| 2026-04-15 14:43 | 50.18951 | 21.34451 | 37208 ft | 471 kts | 168° |
| 2026-04-15 14:43 | 50.12575 | 21.36828 | 37206 ft | 469 kts | 168° |
| 2026-04-15 14:44 | 50.06279 | 21.39168 | 37211 ft | 466 kts | 168° |
| 2026-04-15 14:44 | 49.99961 | 21.41510 | 37216 ft | 466 kts | 168° |
| 2026-04-15 14:45 | 49.93643 | 21.43844 | 37210 ft | 467 kts | 168° |
| 2026-04-15 14:45 | 49.87313 | 21.46178 | 37224 ft | 468 kts | 168° |
| 2026-04-15 14:46 | 49.80996 | 21.48500 | 37208 ft | 470 kts | 168° |
| 2026-04-15 14:46 | 49.74616 | 21.50840 | 37201 ft | 472 kts | 169° |
| 2026-04-15 14:47 | 49.68212 | 21.53182 | 37216 ft | 473 kts | 169° |
| 2026-04-15 14:47 | 49.61828 | 21.55511 | 37211 ft | 474 kts | 169° |
| 2026-04-15 14:48 | 49.55392 | 21.57852 | 37202 ft | 474 kts | 169° |
| 2026-04-15 14:48 | 49.48991 | 21.60174 | 37203 ft | 474 kts | 169° |
| 2026-04-15 14:49 | 49.42578 | 21.62495 | 37184 ft | 473 kts | 169° |
| 2026-04-15 14:49 | 49.36180 | 21.64803 | 37204 ft | 472 kts | 169° |
| 2026-04-15 14:50 | 49.29780 | 21.67106 | 37196 ft | 471 kts | 169° |
| 2026-04-15 14:50 | 49.23405 | 21.69395 | 37193 ft | 470 kts | 169° |
| 2026-04-15 14:51 | 49.17079 | 21.71659 | 37190 ft | 469 kts | 169° |
| 2026-04-15 14:51 | 49.10721 | 21.73929 | 37188 ft | 468 kts | 169° |
| 2026-04-15 14:52 | 49.04364 | 21.76193 | 37183 ft | 468 kts | 169° |
| 2026-04-15 14:52 | 48.98019 | 21.78447 | 37177 ft | 468 kts | 169° |
| 2026-04-15 14:53 | 48.91711 | 21.80682 | 37173 ft | 467 kts | 169° |
| 2026-04-15 14:53 | 48.85334 | 21.82587 | 37175 ft | 465 kts | 174° |
| 2026-04-15 14:54 | 48.78920 | 21.83994 | 37168 ft | 465 kts | 175° |
| 2026-04-15 14:54 | 48.72553 | 21.85353 | 37166 ft | 465 kts | 174° |
| 2026-04-15 14:55 | 48.66131 | 21.86771 | 37167 ft | 465 kts | 174° |
| 2026-04-15 14:55 | 48.59717 | 21.88214 | 37163 ft | 465 kts | 174° |
| 2026-04-15 14:56 | 48.53348 | 21.89650 | 37160 ft | 465 kts | 174° |
| 2026-04-15 14:56 | 48.46933 | 21.91091 | 37156 ft | 466 kts | 174° |
| 2026-04-15 14:57 | 48.40513 | 21.92527 | 37158 ft | 466 kts | 174° |
| 2026-04-15 14:57 | 48.34137 | 21.93950 | 37154 ft | 466 kts | 174° |
| 2026-04-15 14:58 | 48.27723 | 21.95378 | 37156 ft | 466 kts | 174° |
| 2026-04-15 14:58 | 48.21307 | 21.96803 | 37162 ft | 466 kts | 174° |
| 2026-04-15 14:59 | 48.14885 | 21.98225 | 37164 ft | 465 kts | 174° |
| 2026-04-15 14:59 | 48.08477 | 21.99641 | 37168 ft | 465 kts | 174° |
| 2026-04-15 15:00 | 48.02116 | 22.01042 | 37169 ft | 465 kts | 174° |
| 2026-04-15 15:00 | 47.95711 | 22.02450 | 37163 ft | 465 kts | 174° |
| 2026-04-15 15:01 | 47.89313 | 22.03853 | 37164 ft | 464 kts | 174° |
| 2026-04-15 15:01 | 47.82913 | 22.05253 | 37166 ft | 464 kts | 174° |
| 2026-04-15 15:02 | 47.76503 | 22.06651 | 37153 ft | 464 kts | 174° |
| 2026-04-15 15:02 | 47.70135 | 22.08038 | 37144 ft | 464 kts | 174° |
| 2026-04-15 15:03 | 47.63746 | 22.09425 | 37146 ft | 464 kts | 174° |
| 2026-04-15 15:03 | 47.57410 | 22.10935 | 37138 ft | 465 kts | 169° |
| 2026-04-15 15:04 | 47.51276 | 22.14202 | 37145 ft | 468 kts | 160° |
| 2026-04-15 15:04 | 47.45234 | 22.17873 | 37142 ft | 468 kts | 160° |
| 2026-04-15 15:05 | 47.39224 | 22.21485 | 37141 ft | 468 kts | 161° |
| 2026-04-15 15:05 | 47.33167 | 22.25061 | 37141 ft | 468 kts | 161° |
| 2026-04-15 15:06 | 47.24071 | 22.30375 | 37143 ft | 469 kts | 161° |
| 2026-04-15 15:06 | 47.17990 | 22.33916 | 37141 ft | 469 kts | 161° |
| 2026-04-15 15:07 | 47.11956 | 22.37422 | 37137 ft | 469 kts | 161° |
| 2026-04-15 15:07 | 47.05874 | 22.40948 | 37143 ft | 469 kts | 161° |
| 2026-04-15 15:08 | 46.99789 | 22.44468 | 37133 ft | 469 kts | 161° |
| 2026-04-15 15:08 | 46.93711 | 22.47975 | 37137 ft | 469 kts | 161° |
| 2026-04-15 15:09 | 46.87670 | 22.51453 | 37128 ft | 468 kts | 161° |
| 2026-04-15 15:09 | 46.81597 | 22.54940 | 37136 ft | 468 kts | 161° |
| 2026-04-15 15:10 | 46.75572 | 22.58391 | 37130 ft | 468 kts | 161° |
| 2026-04-15 15:10 | 46.69509 | 22.61856 | 37124 ft | 467 kts | 161° |
| 2026-04-15 15:11 | 46.63448 | 22.65312 | 37138 ft | 466 kts | 161° |
| 2026-04-15 15:11 | 46.57404 | 22.68749 | 37127 ft | 466 kts | 161° |
| 2026-04-15 15:12 | 46.51360 | 22.72178 | 37128 ft | 465 kts | 161° |
| 2026-04-15 15:12 | 46.45360 | 22.75573 | 37121 ft | 464 kts | 161° |
| 2026-04-15 15:13 | 46.39334 | 22.78976 | 37119 ft | 463 kts | 161° |
| 2026-04-15 15:13 | 46.33317 | 22.82365 | 37111 ft | 463 kts | 162° |
| 2026-04-15 15:14 | 46.27352 | 22.85718 | 37121 ft | 462 kts | 162° |
| 2026-04-15 15:14 | 46.21358 | 22.89078 | 37111 ft | 461 kts | 161° |
| 2026-04-15 15:15 | 46.15369 | 22.92427 | 37112 ft | 461 kts | 161° |
| 2026-04-15 15:15 | 46.09409 | 22.95754 | 37103 ft | 461 kts | 161° |
| 2026-04-15 15:16 | 46.03419 | 22.99088 | 37108 ft | 461 kts | 161° |
| 2026-04-15 15:16 | 45.97423 | 23.02419 | 37122 ft | 462 kts | 161° |
| 2026-04-15 15:17 | 45.91411 | 23.05750 | 37113 ft | 463 kts | 161° |
| 2026-04-15 15:17 | 45.85387 | 23.09080 | 37102 ft | 463 kts | 161° |
| 2026-04-15 15:18 | 45.79405 | 23.12380 | 37118 ft | 463 kts | 161° |
| 2026-04-15 15:18 | 45.73375 | 23.15698 | 37102 ft | 464 kts | 161° |
| 2026-04-15 15:19 | 45.67346 | 23.19009 | 37119 ft | 464 kts | 161° |
| 2026-04-15 15:19 | 45.61346 | 23.22296 | 37114 ft | 464 kts | 162° |
| 2026-04-15 15:20 | 45.55307 | 23.25596 | 37103 ft | 464 kts | 162° |
| 2026-04-15 15:20 | 45.49275 | 23.28885 | 37116 ft | 463 kts | 162° |
| 2026-04-15 15:21 | 45.43249 | 23.32163 | 37117 ft | 463 kts | 162° |
| 2026-04-15 15:21 | 45.37221 | 23.35435 | 37129 ft | 463 kts | 162° |
| 2026-04-15 15:22 | 45.31229 | 23.38679 | 37135 ft | 462 kts | 162° |
| 2026-04-15 15:22 | 45.25202 | 23.41936 | 37134 ft | 463 kts | 162° |
| 2026-04-15 15:23 | 45.19199 | 23.45172 | 37136 ft | 463 kts | 162° |
| 2026-04-15 15:23 | 45.13162 | 23.48419 | 37136 ft | 463 kts | 162° |
| 2026-04-15 15:24 | 45.07167 | 23.51636 | 37141 ft | 463 kts | 162° |
| 2026-04-15 15:24 | 45.01130 | 23.54869 | 37143 ft | 463 kts | 162° |
| 2026-04-15 15:25 | 44.96121 | 23.57545 | 37145 ft | 462 kts | 162° |
| 2026-04-15 15:25 | 44.89116 | 23.61280 | 37148 ft | 462 kts | 162° |
| 2026-04-15 15:26 | 44.84100 | 23.63948 | 37147 ft | 462 kts | 162° |
| 2026-04-15 15:26 | 44.78078 | 23.67144 | 37158 ft | 462 kts | 162° |
| 2026-04-15 15:27 | 44.72055 | 23.70334 | 37159 ft | 462 kts | 162° |
| 2026-04-15 15:27 | 44.66068 | 23.73498 | 37157 ft | 462 kts | 162° |
| 2026-04-15 15:28 | 44.60034 | 23.76680 | 37169 ft | 462 kts | 162° |
| 2026-04-15 15:28 | 44.54005 | 23.79852 | 37164 ft | 462 kts | 162° |
| 2026-04-15 15:29 | 44.48007 | 23.83001 | 37180 ft | 462 kts | 162° |
| 2026-04-15 15:29 | 44.41981 | 23.86158 | 37181 ft | 462 kts | 162° |
| 2026-04-15 15:30 | 44.35964 | 23.89303 | 37184 ft | 462 kts | 162° |
| 2026-04-15 15:30 | 44.29963 | 23.92433 | 37184 ft | 461 kts | 162° |
| 2026-04-15 15:31 | 44.23930 | 23.95572 | 37181 ft | 461 kts | 162° |
| 2026-04-15 15:31 | 44.17918 | 23.98694 | 37183 ft | 461 kts | 162° |
| 2026-04-15 15:32 | 44.11937 | 24.01793 | 37185 ft | 460 kts | 162° |
| 2026-04-15 15:32 | 44.05923 | 24.04902 | 37183 ft | 460 kts | 162° |
| 2026-04-15 15:33 | 43.99909 | 24.08005 | 37182 ft | 460 kts | 162° |
| 2026-04-15 15:33 | 43.93932 | 24.11082 | 37182 ft | 460 kts | 162° |
| 2026-04-15 15:34 | 43.87923 | 24.14169 | 37184 ft | 460 kts | 162° |
| 2026-04-15 15:34 | 43.81907 | 24.17253 | 37189 ft | 460 kts | 162° |
| 2026-04-15 15:35 | 43.75886 | 24.20334 | 37191 ft | 460 kts | 162° |
| 2026-04-15 15:35 | 43.69827 | 24.23194 | 36927 ft | 460 kts | 171° |
| 2026-04-15 15:36 | 43.66729 | 24.23878 | 36679 ft | 453 kts | 179° |
| 2026-04-15 15:36 | 43.63598 | 24.23909 | 36424 ft | 448 kts | 185° |
| 2026-04-15 15:36 | 43.60474 | 24.23775 | 35882 ft | 450 kts | 185° |
| 2026-04-15 15:36 | 43.57399 | 24.23261 | 35228 ft | 442 kts | 199° |
| 2026-04-15 15:37 | 43.54609 | 24.21584 | 34573 ft | 435 kts | 215° |
| 2026-04-15 15:37 | 43.52241 | 24.19033 | 33870 ft | 430 kts | 228° |
| 2026-04-15 15:37 | 43.50295 | 24.15926 | 33126 ft | 427 kts | 232° |
| 2026-04-15 15:37 | 43.48376 | 24.12789 | 32384 ft | 428 kts | 232° |
| 2026-04-15 15:38 | 43.46467 | 24.09713 | 31658 ft | 428 kts | 231° |
| 2026-04-15 15:38 | 43.44521 | 24.06610 | 30959 ft | 428 kts | 231° |
| 2026-04-15 15:38 | 43.42567 | 24.03516 | 30275 ft | 427 kts | 231° |
| 2026-04-15 15:38 | 43.40611 | 24.00433 | 29494 ft | 427 kts | 231° |
| 2026-04-15 15:39 | 43.38651 | 23.97350 | 28707 ft | 425 kts | 231° |
| 2026-04-15 15:39 | 43.36707 | 23.94296 | 27962 ft | 424 kts | 231° |
| 2026-04-15 15:39 | 43.34765 | 23.91247 | 27230 ft | 422 kts | 231° |
| 2026-04-15 15:39 | 43.32855 | 23.88252 | 26517 ft | 421 kts | 231° |
| 2026-04-15 15:40 | 43.30932 | 23.85239 | 25901 ft | 418 kts | 231° |
| 2026-04-15 15:40 | 43.29015 | 23.82238 | 25286 ft | 415 kts | 231° |
| 2026-04-15 15:40 | 43.27116 | 23.79266 | 24688 ft | 412 kts | 230° |
| 2026-04-15 15:40 | 43.25221 | 23.76305 | 24102 ft | 410 kts | 230° |
| 2026-04-15 15:41 | 43.23344 | 23.73376 | 23480 ft | 408 kts | 230° |
| 2026-04-15 15:41 | 43.21478 | 23.70463 | 22818 ft | 406 kts | 230° |
| 2026-04-15 15:41 | 43.19618 | 23.67566 | 22151 ft | 403 kts | 230° |
| 2026-04-15 15:41 | 43.17767 | 23.64684 | 21503 ft | 401 kts | 230° |
| 2026-04-15 15:42 | 43.15947 | 23.61853 | 20872 ft | 399 kts | 230° |
| 2026-04-15 15:42 | 43.14115 | 23.59008 | 20258 ft | 397 kts | 229° |
| 2026-04-15 15:42 | 43.12289 | 23.56173 | 19657 ft | 395 kts | 229° |
| 2026-04-15 15:42 | 43.10471 | 23.53354 | 19061 ft | 393 kts | 229° |
| 2026-04-15 15:43 | 43.08659 | 23.50548 | 18476 ft | 391 kts | 229° |
| 2026-04-15 15:43 | 43.06879 | 23.47792 | 17815 ft | 389 kts | 229° |
| 2026-04-15 15:43 | 43.05093 | 23.45030 | 17167 ft | 387 kts | 229° |
| 2026-04-15 15:43 | 43.03309 | 23.42274 | 16524 ft | 384 kts | 228° |
| 2026-04-15 15:44 | 43.01541 | 23.39546 | 15894 ft | 382 kts | 228° |
| 2026-04-15 15:44 | 42.99781 | 23.36833 | 15277 ft | 380 kts | 228° |
| 2026-04-15 15:44 | 42.98030 | 23.34135 | 14680 ft | 378 kts | 228° |
| 2026-04-15 15:45 | 42.96786 | 23.32219 | 14254 ft | 370 kts | 227° |
| 2026-04-15 15:45 | 42.95102 | 23.29629 | 13609 ft | 358 kts | 228° |
| 2026-04-15 15:45 | 42.93468 | 23.27118 | 12959 ft | 348 kts | 227° |
| 2026-04-15 15:45 | 42.91883 | 23.24683 | 12317 ft | 340 kts | 227° |
| 2026-04-15 15:46 | 42.90333 | 23.22282 | 11680 ft | 333 kts | 228° |
| 2026-04-15 15:46 | 42.88829 | 23.19934 | 11061 ft | 326 kts | 228° |
| 2026-04-15 15:46 | 42.87336 | 23.17626 | 10460 ft | 321 kts | 228° |
| 2026-04-15 15:46 | 42.85861 | 23.15371 | 9843 ft | 316 kts | 227° |
| 2026-04-15 15:47 | 42.84419 | 23.13180 | 9188 ft | 312 kts | 227° |
| 2026-04-15 15:47 | 42.82977 | 23.10999 | 8612 ft | 306 kts | 227° |
| 2026-04-15 15:47 | 42.81567 | 23.08869 | 8098 ft | 299 kts | 227° |
| 2026-04-15 15:47 | 42.79980 | 23.07124 | 7578 ft | 291 kts | 206° |
| 2026-04-15 15:48 | 42.78082 | 23.06331 | 7150 ft | 283 kts | 186° |
| 2026-04-15 15:48 | 42.76171 | 23.06122 | 7017 ft | 266 kts | 184° |
| 2026-04-15 15:48 | 42.74384 | 23.05957 | 6961 ft | 248 kts | 181° |
| 2026-04-15 15:48 | 42.72724 | 23.06500 | 6483 ft | 249 kts | 145° |
| 2026-04-15 15:49 | 42.71698 | 23.08282 | 6298 ft | 241 kts | 109° |
| 2026-04-15 15:49 | 42.71507 | 23.10507 | 6033 ft | 235 kts | 93° |
| 2026-04-15 15:49 | 42.71425 | 23.12685 | 5729 ft | 232 kts | 96° |
| 2026-04-15 15:49 | 42.71294 | 23.14884 | 5440 ft | 234 kts | 96° |
| 2026-04-15 15:50 | 42.71155 | 23.17074 | 5128 ft | 231 kts | 96° |
| 2026-04-15 15:50 | 42.71020 | 23.19223 | 4826 ft | 225 kts | 96° |
| 2026-04-15 15:50 | 42.70892 | 23.21298 | 4508 ft | 213 kts | 96° |
| 2026-04-15 15:50 | 42.70771 | 23.23242 | 4234 ft | 200 kts | 96° |
| 2026-04-15 15:51 | 42.70659 | 23.25053 | 3985 ft | 185 kts | 96° |
| 2026-04-15 15:51 | 42.70555 | 23.26747 | 3721 ft | 173 kts | 96° |
| 2026-04-15 15:51 | 42.70460 | 23.28311 | 3537 ft | 157 kts | 95° |
| 2026-04-15 15:51 | 42.70372 | 23.29740 | 3302 ft | 149 kts | 96° |
| 2026-04-15 15:52 | 42.70285 | 23.31152 | 3074 ft | 150 kts | 96° |
| 2026-04-15 15:52 | 42.70201 | 23.32528 | 2865 ft | 148 kts | 95° |
| 2026-04-15 15:52 | 42.70117 | 23.33930 | 2634 ft | 148 kts | 95° |
| 2026-04-15 15:52 | 42.70031 | 23.35315 | 2458 ft | 147 kts | 95° |
| 2026-04-15 15:53 | 42.69941 | 23.36700 | 2260 ft | 147 kts | 94° |
| 2026-04-15 15:53 | 42.69869 | 23.38078 | 2063 ft | 145 kts | 95° |
| 2026-04-15 15:53 | 42.69783 | 23.39447 | 1854 ft | 144 kts | 94° |
| 2026-04-15 15:53 | 42.69708 | 23.40774 | 1744 ft | 130 kts | 94° |
| 2026-04-15 15:54 | 42.69659 | 23.41572 | 1754 ft | 47 kts | 95° |
| 2026-04-15 15:54 | 42.69634 | 23.41989 | 1748 ft | 41 kts | 95° |
| 2026-04-15 15:54 | 42.69610 | 23.42354 | 1751 ft | 36 kts | 94° |
| 2026-04-15 15:54 | 42.69539 | 23.42642 | 1750 ft | 18 kts | 122° |
| 2026-04-15 15:55 | 42.69476 | 23.42752 | 1748 ft | 15 kts | 148° |
| 2026-04-15 15:55 | 42.69403 | 23.42698 | 1750 ft | 14 kts | 262° |
| 2026-04-15 15:55 | 42.69410 | 23.42569 | 1748 ft | 13 kts | 275° |
| 2026-04-15 15:55 | 42.69417 | 23.42448 | 1752 ft | 13 kts | 274° |
| 2026-04-15 15:56 | 42.69425 | 23.42307 | 1752 ft | 17 kts | 274° |
| 2026-04-15 15:56 | 42.69436 | 23.42119 | 1743 ft | 23 kts | 274° |
| 2026-04-15 15:56 | 42.69450 | 23.41888 | 1749 ft | 25 kts | 274° |
| 2026-04-15 15:56 | 42.69463 | 23.41659 | 1752 ft | 24 kts | 275° |
| 2026-04-15 15:57 | 42.69466 | 23.41584 | 1752 ft | 0 kts | 269° |
| 2026-04-15 15:57 | 42.69468 | 23.41548 | 1752 ft | 15 kts | 275° |
| 2026-04-15 15:57 | 42.69482 | 23.41356 | 1745 ft | 21 kts | 275° |
| 2026-04-15 15:57 | 42.69423 | 23.41207 | 1750 ft | 17 kts | 193° |
| 2026-04-15 15:58 | 42.69310 | 23.41176 | 1747 ft | 16 kts | 192° |
| 2026-04-15 15:58 | 42.69207 | 23.41147 | 1752 ft | 15 kts | 191° |
| 2026-04-15 15:58 | 42.69124 | 23.41085 | 1749 ft | 14 kts | 246° |
| 2026-04-15 15:58 | 42.69088 | 23.40935 | 1749 ft | 22 kts | 252° |
| 2026-04-15 15:59 | 42.69068 | 23.40727 | 1750 ft | 23 kts | 287° |
| 2026-04-15 15:59 | 42.69085 | 23.40624 | 1749 ft | 3 kts | 242° |
| 2026-04-15 15:59 | 42.69067 | 23.40608 | 1747 ft | 3 kts | 204° |
| 2026-04-15 15:59 | 42.69045 | 23.40598 | 1745 ft | 3 kts | 197° |
| 2026-04-15 16:00 | 42.69024 | 23.40590 | 1748 ft | 2 kts | 196° |
| 2026-04-15 16:00 | 42.69023 | 23.40589 | 1747 ft | 0 kts | 195° |